Time;durP1;ratioP1;P1;durP2;ratioP2;P2;SDS_P1;SDS_P2;PMS_P1;PMS_P2;Temp;Humidity;BMP_temperature;BMP_pressure;BME280_temperature;BME280_humidity;BME280_pressure;Samples;Min_cycle;Max_cycle;Signal;HPM_P1;HPM_P2
2022/03/09 00:00:11;;;;;;;42.15;16.83;;;;;;;;;;4972607;28;20422;-62
2022/03/09 00:02:37;;;;;;;40.92;16.35;;;;;;;;;;4972857;28;20179;-62
2022/03/09 00:05:03;;;;;;;49.08;18.20;;;;;;;;;;4972781;28;20514;-62
2022/03/09 00:07:28;;;;;;;43.20;16.70;;;;;;;;;;4971459;28;20049;-62
2022/03/09 00:09:54;;;;;;;41.70;17.20;;;;;;;;;;4971775;28;20052;-62
2022/03/09 00:12:20;;;;;;;35.67;15.75;;;;;;;;;;4971769;28;20468;-62
2022/03/09 00:14:45;;;;;;;38.95;16.05;;;;;;;;;;4972416;28;20484;-62
2022/03/09 00:17:11;;;;;;;44.20;17.80;;;;;;;;;;4973377;28;20432;-62
2022/03/09 00:19:36;;;;;;;43.15;16.05;;;;;;;;;;4972685;28;20453;-62
2022/03/09 00:22:01;;;;;;;42.83;17.70;;;;;;;;;;4971658;28;20095;-62
2022/03/09 00:24:27;;;;;;;41.15;15.98;;;;;;;;;;4972030;28;20405;-63
2022/03/09 00:26:52;;;;;;;42.47;16.83;;;;;;;;;;4970568;28;20376;-62
2022/03/09 00:29:18;;;;;;;40.58;15.95;;;;;;;;;;4971615;28;20392;-62
2022/03/09 00:31:43;;;;;;;40.65;17.65;;;;;;;;;;4973151;28;20443;-62
2022/03/09 00:34:08;;;;;;;46.72;17.90;;;;;;;;;;4971786;28;20360;-62
2022/03/09 00:36:34;;;;;;;44.28;17.52;;;;;;;;;;4973033;28;20361;-62
2022/03/09 00:39:00;;;;;;;43.05;17.00;;;;;;;;;;4971833;28;20425;-62
2022/03/09 00:41:26;;;;;;;42.08;16.15;;;;;;;;;;4971284;28;20464;-61
2022/03/09 00:43:51;;;;;;;42.42;17.55;;;;;;;;;;4971353;28;20456;-62
2022/03/09 00:46:16;;;;;;;46.55;18.00;;;;;;;;;;4970953;28;20514;-61
2022/03/09 00:48:42;;;;;;;48.92;16.58;;;;;;;;;;4971656;28;20507;-61
2022/03/09 00:51:07;;;;;;;38.78;16.25;;;;;;;;;;4970924;28;20468;-62
2022/03/09 00:53:32;;;;;;;41.92;17.33;;;;;;;;;;4972274;28;20503;-61
2022/03/09 00:55:58;;;;;;;40.55;17.02;;;;;;;;;;4970938;28;20349;-61
2022/03/09 00:58:23;;;;;;;45.22;18.10;;;;;;;;;;4971429;28;20329;-63
2022/03/09 01:00:49;;;;;;;43.33;16.95;;;;;;;;;;4965183;28;20523;-62
2022/03/09 01:03:15;;;;;;;42.95;17.55;;;;;;;;;;4958249;28;20457;-62
2022/03/09 01:05:40;;;;;;;47.22;17.20;;;;;;;;;;4952041;28;20421;-62
2022/03/09 01:08:06;;;;;;;44.28;16.50;;;;;;;;;;4952155;28;20426;-62
2022/03/09 01:10:31;;;;;;;48.97;17.45;;;;;;;;;;4951023;28;20374;-62
2022/03/09 01:12:56;;;;;;;43.10;16.45;;;;;;;;;;4951220;28;20437;-62
2022/03/09 01:15:22;;;;;;;37.65;16.92;;;;;;;;;;4951326;28;20369;-61
2022/03/09 01:17:47;;;;;;;38.15;16.52;;;;;;;;;;4951035;28;20427;-62
2022/03/09 01:20:13;;;;;;;38.55;16.95;;;;;;;;;;4950886;28;20128;-62
2022/03/09 01:22:38;;;;;;;43.17;17.48;;;;;;;;;;4951055;28;20053;-63
2022/03/09 01:25:04;;;;;;;40.95;18.05;;;;;;;;;;4951087;28;20481;-62
2022/03/09 01:27:29;;;;;;;40.03;16.65;;;;;;;;;;4950842;28;20088;-62
2022/03/09 01:29:55;;;;;;;35.58;16.08;;;;;;;;;;4951401;28;20463;-62
2022/03/09 01:32:21;;;;;;;45.78;17.63;;;;;;;;;;4951182;28;20038;-62
2022/03/09 01:34:47;;;;;;;48.00;17.45;;;;;;;;;;4950564;28;20095;-63
2022/03/09 01:37:12;;;;;;;43.28;15.82;;;;;;;;;;4950911;28;20461;-62
2022/03/09 01:39:38;;;;;;;42.72;17.55;;;;;;;;;;4950540;28;20030;-62
2022/03/09 01:42:03;;;;;;;43.28;17.02;;;;;;;;;;4951302;28;20438;-62
2022/03/09 01:44:29;;;;;;;44.78;17.67;;;;;;;;;;4950309;28;20427;-62
2022/03/09 01:46:55;;;;;;;40.50;18.17;;;;;;;;;;4950664;28;20073;-62
2022/03/09 01:49:21;;;;;;;47.83;19.00;;;;;;;;;;4965268;28;20075;-62
2022/03/09 01:51:49;;;;;;;40.15;16.85;;;;;;;;;;4951573;28;20112;-63
2022/03/09 01:54:14;;;;;;;40.72;17.02;;;;;;;;;;4932575;28;20034;-62
2022/03/09 01:56:41;;;;;;;41.22;15.90;;;;;;;;;;4950683;28;20034;-62
2022/03/09 01:59:11;;;;;;;41.65;16.85;;;;;;;;;;4951068;28;20453;-61
2022/03/09 02:01:37;;;;;;;43.67;17.25;;;;;;;;;;4950499;28;20535;-62
2022/03/09 02:04:04;;;;;;;47.67;17.60;;;;;;;;;;4950892;28;20505;-62
2022/03/09 02:06:31;;;;;;;39.83;17.80;;;;;;;;;;4950794;28;20432;-61
2022/03/09 02:11:41;;;;;;;42.67;17.02;;;;;;;;;;4950251;28;20464;-61
2022/03/09 02:14:27;;;;;;;44.50;17.52;;;;;;;;;;4932608;28;20317;-62
2022/03/09 02:16:53;;;;;;;40.55;16.80;;;;;;;;;;4949933;28;20389;-62
2022/03/09 02:19:18;;;;;;;45.25;18.27;;;;;;;;;;4949777;28;20401;-62
2022/03/09 02:21:45;;;;;;;42.45;17.92;;;;;;;;;;4950510;28;20132;-62
2022/03/09 02:24:10;;;;;;;45.35;16.65;;;;;;;;;;4932666;28;20438;-62
2022/03/09 02:26:36;;;;;;;44.08;16.60;;;;;;;;;;4950558;28;20437;-62
2022/03/09 02:29:01;;;;;;;42.67;17.10;;;;;;;;;;4932443;28;20326;-61
2022/03/09 02:31:27;;;;;;;43.22;16.88;;;;;;;;;;4950091;28;20326;-62
2022/03/09 02:33:52;;;;;;;40.30;17.05;;;;;;;;;;4949703;28;20433;-61
2022/03/09 02:36:20;;;;;;;40.67;16.10;;;;;;;;;;4951787;28;20468;-62
2022/03/09 02:38:45;;;;;;;39.72;17.02;;;;;;;;;;4949470;28;20310;-62
2022/03/09 02:41:10;;;;;;;43.58;17.60;;;;;;;;;;4950475;28;20369;-62
2022/03/09 02:43:36;;;;;;;46.60;17.58;;;;;;;;;;4950238;28;20452;-62
2022/03/09 02:46:01;;;;;;;41.17;15.48;;;;;;;;;;4951307;28;20487;-62
2022/03/09 02:48:26;;;;;;;35.05;16.17;;;;;;;;;;4949794;28;20453;-61
2022/03/09 02:50:52;;;;;;;37.22;17.13;;;;;;;;;;4950634;28;20461;-61
2022/03/09 02:53:17;;;;;;;46.05;18.20;;;;;;;;;;4949713;28;20558;-63
2022/03/09 02:55:42;;;;;;;38.30;16.90;;;;;;;;;;4949618;28;20420;-62
2022/03/09 02:58:08;;;;;;;46.65;17.65;;;;;;;;;;4949222;28;20088;-62
2022/03/09 03:00:33;;;;;;;49.72;16.83;;;;;;;;;;4964761;28;20076;-62
2022/03/09 03:02:58;;;;;;;37.45;16.33;;;;;;;;;;4949946;28;20456;-61
2022/03/09 03:05:24;;;;;;;43.20;16.88;;;;;;;;;;4950424;28;20504;-62
2022/03/09 03:07:49;;;;;;;44.15;16.35;;;;;;;;;;4948986;28;20505;-62
2022/03/09 03:10:14;;;;;;;46.03;17.80;;;;;;;;;;4949654;28;20580;-62
2022/03/09 03:12:40;;;;;;;42.75;18.38;;;;;;;;;;4949317;28;20488;-62
2022/03/09 03:15:06;;;;;;;42.58;17.42;;;;;;;;;;4949709;28;20459;-61
2022/03/09 03:17:35;;;;;;;48.00;18.80;;;;;;;;;;4949401;28;20377;-62
2022/03/09 03:20:00;;;;;;;46.75;17.15;;;;;;;;;;4949229;28;20365;-61
2022/03/09 03:22:25;;;;;;;39.55;16.55;;;;;;;;;;4949563;28;20053;-62
2022/03/09 03:24:51;;;;;;;43.40;17.40;;;;;;;;;;4949074;28;20384;-62
2022/03/09 03:27:16;;;;;;;42.75;16.23;;;;;;;;;;4949398;28;20362;-62
2022/03/09 03:29:41;;;;;;;34.55;15.85;;;;;;;;;;4950252;28;20460;-62
2022/03/09 03:32:10;;;;;;;43.42;18.02;;;;;;;;;;4949385;28;20471;-62
2022/03/09 03:34:35;;;;;;;40.92;16.23;;;;;;;;;;4949003;28;20108;-62
2022/03/09 03:37:00;;;;;;;44.47;17.63;;;;;;;;;;4949768;28;20187;-62
2022/03/09 03:39:25;;;;;;;42.40;16.73;;;;;;;;;;4949209;28;20026;-62
2022/03/09 03:41:51;;;;;;;47.03;18.10;;;;;;;;;;4949078;28;20457;-62
2022/03/09 03:44:17;;;;;;;40.08;15.98;;;;;;;;;;4948937;28;20432;-62
2022/03/09 03:46:44;;;;;;;40.15;16.73;;;;;;;;;;4948992;28;20449;-62
2022/03/09 03:49:09;;;;;;;40.53;17.83;;;;;;;;;;4949692;28;20333;-62
2022/03/09 03:51:34;;;;;;;37.00;17.77;;;;;;;;;;4949204;28;20377;-62
2022/03/09 03:54:00;;;;;;;42.83;16.52;;;;;;;;;;4948919;28;20492;-62
2022/03/09 03:56:25;;;;;;;38.75;16.63;;;;;;;;;;4949067;28;20410;-62
2022/03/09 03:58:50;;;;;;;43.97;18.10;;;;;;;;;;4949320;28;20112;-62
2022/03/09 04:01:16;;;;;;;35.13;15.77;;;;;;;;;;4950890;28;20516;-62
2022/03/09 04:03:41;;;;;;;41.72;16.25;;;;;;;;;;4952648;28;20455;-61
2022/03/09 04:06:06;;;;;;;38.65;16.27;;;;;;;;;;4952387;28;20512;-62
2022/03/09 04:08:32;;;;;;;35.95;16.48;;;;;;;;;;4953319;28;20467;-61
2022/03/09 04:10:57;;;;;;;42.58;15.75;;;;;;;;;;4953376;28;20452;-62
2022/03/09 04:13:22;;;;;;;36.22;15.30;;;;;;;;;;4952081;28;20421;-62
2022/03/09 04:15:48;;;;;;;40.22;17.00;;;;;;;;;;4952271;28;20429;-61
2022/03/09 04:18:13;;;;;;;35.78;15.45;;;;;;;;;;4952325;28;20479;-62
2022/03/09 04:20:38;;;;;;;42.63;16.63;;;;;;;;;;4953203;28;20503;-61
2022/03/09 04:23:08;;;;;;;43.40;16.00;;;;;;;;;;4952703;28;20398;-62
2022/03/09 04:25:35;;;;;;;37.58;16.08;;;;;;;;;;4952681;28;20379;-62
2022/03/09 04:28:00;;;;;;;45.00;16.80;;;;;;;;;;4951620;28;20395;-62
2022/03/09 04:30:25;;;;;;;38.22;16.05;;;;;;;;;;4951880;28;21432;-62
2022/03/09 04:32:51;;;;;;;39.75;15.75;;;;;;;;;;4951733;28;20457;-62
2022/03/09 04:35:16;;;;;;;45.40;17.15;;;;;;;;;;4951674;28;20410;-62
2022/03/09 04:37:41;;;;;;;44.33;16.35;;;;;;;;;;4952935;28;20455;-62
2022/03/09 04:40:07;;;;;;;43.17;16.63;;;;;;;;;;4952491;28;20437;-62
2022/03/09 04:42:33;;;;;;;37.97;15.85;;;;;;;;;;4934293;28;20357;-62
2022/03/09 04:44:58;;;;;;;38.17;16.10;;;;;;;;;;4951392;28;20327;-63
2022/03/09 04:47:24;;;;;;;40.67;15.68;;;;;;;;;;4952115;28;20081;-62
2022/03/09 04:49:51;;;;;;;36.45;15.52;;;;;;;;;;4952045;28;20454;-61
2022/03/09 04:52:17;;;;;;;38.33;17.02;;;;;;;;;;4952231;28;20037;-62
2022/03/09 04:54:42;;;;;;;40.35;16.30;;;;;;;;;;4952529;28;20068;-62
2022/03/09 04:57:07;;;;;;;38.22;15.07;;;;;;;;;;4954191;28;20108;-62
2022/03/09 04:59:32;;;;;;;36.58;15.10;;;;;;;;;;4951203;28;20460;-62
2022/03/09 05:01:58;;;;;;;42.53;16.73;;;;;;;;;;4951696;28;20424;-62
2022/03/09 05:04:23;;;;;;;41.08;14.70;;;;;;;;;;4951165;28;20445;-62
2022/03/09 05:06:48;;;;;;;40.22;15.88;;;;;;;;;;4965588;28;20429;-62
2022/03/09 05:09:14;;;;;;;48.22;16.60;;;;;;;;;;4951359;28;20025;-62
2022/03/09 05:11:39;;;;;;;39.28;15.93;;;;;;;;;;4950788;28;20376;-62
2022/03/09 05:14:04;;;;;;;36.50;15.45;;;;;;;;;;4951511;28;20457;-63
2022/03/09 05:16:30;;;;;;;38.10;15.13;;;;;;;;;;4951914;28;20387;-62
2022/03/09 05:18:55;;;;;;;37.65;15.73;;;;;;;;;;4952388;28;20402;-62
2022/03/09 05:21:20;;;;;;;43.47;15.70;;;;;;;;;;4951262;28;20329;-61
2022/03/09 05:23:46;;;;;;;38.80;15.70;;;;;;;;;;4950498;28;20368;-61
2022/03/09 05:26:11;;;;;;;39.67;15.95;;;;;;;;;;4950828;28;20354;-62
2022/03/09 05:28:37;;;;;;;45.60;16.23;;;;;;;;;;4950781;28;20579;-62
2022/03/09 05:31:02;;;;;;;39.95;16.73;;;;;;;;;;4951477;28;20334;-62
2022/03/09 05:33:27;;;;;;;34.90;15.18;;;;;;;;;;4950993;28;20349;-62
2022/03/09 05:35:53;;;;;;;32.28;15.23;;;;;;;;;;4951993;28;20489;-61
2022/03/09 05:38:18;;;;;;;37.80;15.73;;;;;;;;;;4950382;28;20377;-62
2022/03/09 05:40:43;;;;;;;39.00;14.90;;;;;;;;;;4950685;28;20441;-62
2022/03/09 05:43:09;;;;;;;40.47;15.52;;;;;;;;;;4950239;28;20272;-62
2022/03/09 05:45:34;;;;;;;36.22;14.95;;;;;;;;;;4950902;28;20471;-61
2022/03/09 05:47:59;;;;;;;34.63;14.88;;;;;;;;;;4950387;28;20025;-62
2022/03/09 05:50:25;;;;;;;45.37;16.30;;;;;;;;;;4951050;28;20022;-62
2022/03/09 05:52:50;;;;;;;41.97;15.80;;;;;;;;;;4950452;28;20049;-62
2022/03/09 05:55:15;;;;;;;36.33;16.35;;;;;;;;;;4950494;28;20341;-62
2022/03/09 05:57:41;;;;;;;44.28;15.75;;;;;;;;;;4951255;28;20338;-62
2022/03/09 06:00:07;;;;;;;43.75;14.50;;;;;;;;;;4950335;28;20354;-62
2022/03/09 06:02:32;;;;;;;39.38;15.13;;;;;;;;;;4950586;28;20376;-62
2022/03/09 06:04:58;;;;;;;30.77;13.93;;;;;;;;;;4950513;28;20349;-62
2022/03/09 06:07:23;;;;;;;37.97;15.02;;;;;;;;;;4951475;28;20410;-61
2022/03/09 06:09:49;;;;;;;33.30;14.05;;;;;;;;;;4932383;28;20515;-62
2022/03/09 06:12:15;;;;;;;39.58;15.25;;;;;;;;;;4949909;28;20438;-63
2022/03/09 06:14:40;;;;;;;36.45;15.15;;;;;;;;;;4949796;28;20488;-62
2022/03/09 06:17:06;;;;;;;38.03;13.77;;;;;;;;;;4950888;28;20345;-62
2022/03/09 06:19:31;;;;;;;44.15;15.05;;;;;;;;;;4949719;28;20030;-63
2022/03/09 06:21:56;;;;;;;36.58;14.68;;;;;;;;;;4950491;28;20358;-62
2022/03/09 06:24:22;;;;;;;42.78;16.35;;;;;;;;;;4963747;28;20480;-62
2022/03/09 06:26:47;;;;;;;37.55;16.33;;;;;;;;;;4950182;28;20379;-62
2022/03/09 06:29:12;;;;;;;42.65;15.70;;;;;;;;;;4949533;28;20105;-61
2022/03/09 06:31:39;;;;;;;35.13;15.20;;;;;;;;;;4950179;28;20437;-62
2022/03/09 06:34:04;;;;;;;35.90;15.18;;;;;;;;;;4949670;28;20424;-62
2022/03/09 06:36:29;;;;;;;36.40;14.88;;;;;;;;;;4950883;28;20441;-61
2022/03/09 06:38:55;;;;;;;42.58;16.42;;;;;;;;;;4949368;28;20488;-62
2022/03/09 06:41:20;;;;;;;43.22;14.05;;;;;;;;;;4950052;28;20381;-62
2022/03/09 06:43:45;;;;;;;38.38;16.15;;;;;;;;;;4949108;28;20354;-62
2022/03/09 06:46:11;;;;;;;39.28;14.35;;;;;;;;;;4950059;28;20318;-63
2022/03/09 06:48:37;;;;;;;37.60;15.70;;;;;;;;;;4949778;28;20319;-63
2022/03/09 06:51:02;;;;;;;39.17;14.40;;;;;;;;;;4931837;28;20377;-62
2022/03/09 06:53:28;;;;;;;46.72;16.05;;;;;;;;;;4949790;28;20337;-62
2022/03/09 06:55:53;;;;;;;36.10;14.25;;;;;;;;;;4949406;28;20353;-63
2022/03/09 06:58:19;;;;;;;37.13;15.40;;;;;;;;;;4951068;28;20129;-62
2022/03/09 07:00:44;;;;;;;40.97;14.82;;;;;;;;;;4949478;28;20408;-62
2022/03/09 07:03:09;;;;;;;35.10;15.23;;;;;;;;;;4949378;28;20429;-62
2022/03/09 07:05:35;;;;;;;43.65;14.80;;;;;;;;;;4949126;28;20344;-62
2022/03/09 07:08:00;;;;;;;40.90;13.63;;;;;;;;;;4949758;28;20049;-62
2022/03/09 07:10:26;;;;;;;44.35;15.93;;;;;;;;;;4949216;28;20330;-61
2022/03/09 07:12:51;;;;;;;34.00;13.80;;;;;;;;;;4949661;28;20340;-62
2022/03/09 07:15:17;;;;;;;34.92;14.25;;;;;;;;;;4950007;28;20437;-63
2022/03/09 07:17:43;;;;;;;38.63;14.93;;;;;;;;;;4950778;28;20503;-62
2022/03/09 07:20:09;;;;;;;35.08;14.40;;;;;;;;;;4949643;28;20417;-62
2022/03/09 07:22:34;;;;;;;41.42;15.38;;;;;;;;;;4950112;28;20521;-62
2022/03/09 07:25:00;;;;;;;41.10;15.00;;;;;;;;;;4949116;28;20549;-62
2022/03/09 07:27:25;;;;;;;30.10;13.68;;;;;;;;;;4949601;28;20413;-62
2022/03/09 07:29:50;;;;;;;39.55;15.40;;;;;;;;;;4950842;28;20386;-62
2022/03/09 07:32:16;;;;;;;37.75;15.63;;;;;;;;;;4949325;28;20431;-62
2022/03/09 07:34:41;;;;;;;41.40;15.05;;;;;;;;;;4950368;28;20422;-62
2022/03/09 07:37:07;;;;;;;33.72;15.40;;;;;;;;;;4953472;28;20425;-62
2022/03/09 07:39:33;;;;;;;37.63;14.45;;;;;;;;;;4952719;28;20441;-62
2022/03/09 07:41:58;;;;;;;35.33;15.15;;;;;;;;;;4952790;28;20500;-62
2022/03/09 07:44:24;;;;;;;41.65;16.75;;;;;;;;;;4952341;28;20413;-62
2022/03/09 07:46:50;;;;;;;36.28;15.10;;;;;;;;;;4953221;28;20424;-62
2022/03/09 07:49:17;;;;;;;36.05;14.68;;;;;;;;;;4952829;28;20373;-62
2022/03/09 07:51:42;;;;;;;42.22;16.95;;;;;;;;;;4952716;28;20439;-62
2022/03/09 07:54:08;;;;;;;35.92;14.35;;;;;;;;;;4954471;28;20523;-62
2022/03/09 07:56:35;;;;;;;35.35;15.38;;;;;;;;;;4952639;28;20330;-63
2022/03/09 07:59:01;;;;;;;37.75;15.38;;;;;;;;;;4953003;28;20108;-62
2022/03/09 08:01:26;;;;;;;40.20;14.85;;;;;;;;;;4952505;28;20463;-62
2022/03/09 08:03:53;;;;;;;37.45;16.10;;;;;;;;;;4952618;28;20425;-63
2022/03/09 08:06:18;;;;;;;30.85;14.52;;;;;;;;;;4952394;28;20057;-63
2022/03/09 08:08:44;;;;;;;35.58;14.43;;;;;;;;;;4953415;28;20425;-62
2022/03/09 08:11:13;;;;;;;38.05;14.80;;;;;;;;;;4954582;28;20425;-62
2022/03/09 08:13:39;;;;;;;32.50;14.05;;;;;;;;;;4952019;28;20065;-63
2022/03/09 08:16:04;;;;;;;37.70;15.60;;;;;;;;;;4952047;28;20558;-62
2022/03/09 08:18:30;;;;;;;33.70;14.48;;;;;;;;;;4952114;28;20030;-62
2022/03/09 08:20:55;;;;;;;34.53;14.23;;;;;;;;;;4952160;28;20459;-62
2022/03/09 08:23:22;;;;;;;38.30;15.48;;;;;;;;;;4952010;28;20443;-62
2022/03/09 08:25:48;;;;;;;38.40;13.73;;;;;;;;;;4952674;28;20333;-62
2022/03/09 08:28:13;;;;;;;38.03;14.73;;;;;;;;;;4952030;28;20349;-62
2022/03/09 08:30:40;;;;;;;35.47;15.10;;;;;;;;;;4952437;28;20453;-62
2022/03/09 08:33:06;;;;;;;42.40;16.65;;;;;;;;;;4952096;28;20438;-63
2022/03/09 08:35:32;;;;;;;33.45;14.43;;;;;;;;;;4951871;28;20445;-62
2022/03/09 08:37:57;;;;;;;36.95;15.40;;;;;;;;;;4951515;28;20488;-62
2022/03/09 08:40:23;;;;;;;31.35;14.02;;;;;;;;;;4952741;28;20488;-62
2022/03/09 08:42:48;;;;;;;40.85;15.73;;;;;;;;;;4951425;28;20334;-62
2022/03/09 08:45:14;;;;;;;36.15;14.18;;;;;;;;;;4953460;28;20432;-62
2022/03/09 08:47:39;;;;;;;32.47;14.80;;;;;;;;;;4951105;28;20372;-62
2022/03/09 08:50:06;;;;;;;40.60;14.32;;;;;;;;;;4951200;28;20097;-62
2022/03/09 08:52:31;;;;;;;36.30;15.10;;;;;;;;;;4951289;28;20430;-63
2022/03/09 08:54:56;;;;;;;33.08;14.10;;;;;;;;;;4951407;28;20341;-62
2022/03/09 08:57:22;;;;;;;39.78;14.88;;;;;;;;;;4951664;28;20081;-62
2022/03/09 08:59:48;;;;;;;39.50;14.85;;;;;;;;;;4951779;28;20449;-63
2022/03/09 09:02:13;;;;;;;35.90;15.45;;;;;;;;;;4934229;28;20315;-62
2022/03/09 09:04:39;;;;;;;32.15;13.88;;;;;;;;;;4951238;28;20353;-62
2022/03/09 09:07:06;;;;;;;32.33;13.68;;;;;;;;;;4951222;28;20441;-63
2022/03/09 09:09:31;;;;;;;29.45;13.95;;;;;;;;;;4951808;28;20034;-62
2022/03/09 09:11:56;;;;;;;32.85;12.90;;;;;;;;;;4951387;28;20455;-63
2022/03/09 09:14:22;;;;;;;33.67;14.00;;;;;;;;;;4951134;28;20034;-63
2022/03/09 09:16:48;;;;;;;38.15;14.02;;;;;;;;;;4951129;28;20026;-63
2022/03/09 09:19:13;;;;;;;33.10;12.63;;;;;;;;;;4951405;28;20401;-63
2022/03/09 09:21:38;;;;;;;33.33;14.20;;;;;;;;;;4951154;28;20449;-62
2022/03/09 09:24:05;;;;;;;27.98;12.85;;;;;;;;;;4950857;28;20056;-63
2022/03/09 09:26:30;;;;;;;36.08;15.20;;;;;;;;;;4950792;28;20361;-63
2022/03/09 09:28:55;;;;;;;38.10;14.57;;;;;;;;;;4950650;28;20368;-63
2022/03/09 09:31:21;;;;;;;36.88;13.82;;;;;;;;;;4951974;28;20448;-63
2022/03/09 09:33:46;;;;;;;33.75;13.75;;;;;;;;;;4951720;28;20341;-63
2022/03/09 09:36:11;;;;;;;31.85;13.10;;;;;;;;;;4951600;28;20441;-63
2022/03/09 09:38:37;;;;;;;37.90;14.43;;;;;;;;;;4951190;28;20437;-63
2022/03/09 09:41:02;;;;;;;33.30;12.73;;;;;;;;;;4950848;28;20429;-62
2022/03/09 09:43:27;;;;;;;35.75;12.95;;;;;;;;;;4950416;28;20350;-63
2022/03/09 09:45:53;;;;;;;29.05;12.73;;;;;;;;;;4949498;28;20368;-63
2022/03/09 09:48:19;;;;;;;36.05;13.80;;;;;;;;;;4950561;28;20400;-63
2022/03/09 09:50:45;;;;;;;36.88;13.88;;;;;;;;;;4950541;28;20436;-63
2022/03/09 09:53:13;;;;;;;32.97;13.13;;;;;;;;;;4950308;28;20457;-63
2022/03/09 09:55:40;;;;;;;33.17;12.57;;;;;;;;;;4950274;28;20461;-63
2022/03/09 09:58:05;;;;;;;26.40;10.68;;;;;;;;;;4947814;28;20457;-63
2022/03/09 10:00:31;;;;;;;34.47;11.82;;;;;;;;;;4950385;28;20387;-63
2022/03/09 10:02:58;;;;;;;32.15;12.35;;;;;;;;;;4950734;28;20368;-63
2022/03/09 10:05:24;;;;;;;31.42;13.48;;;;;;;;;;4950399;28;20034;-63
2022/03/09 10:08:04;;;;;;;33.25;11.60;;;;;;;;;;4950718;28;20100;-63
2022/03/09 10:10:31;;;;;;;28.00;11.70;;;;;;;;;;4950079;28;20402;-63
2022/03/09 10:13:15;;;;;;;34.30;12.00;;;;;;;;;;4951349;28;20341;-63
2022/03/09 10:15:41;;;;;;;23.95;10.40;;;;;;;;;;4950466;28;20349;-63
2022/03/09 10:18:14;;;;;;;26.25;11.98;;;;;;;;;;4950019;28;20380;-63
2022/03/09 10:20:39;;;;;;;27.63;11.52;;;;;;;;;;4950153;28;20457;-63
2022/03/09 10:23:05;;;;;;;30.95;11.10;;;;;;;;;;4949690;28;20402;-63
2022/03/09 10:25:30;;;;;;;27.38;10.43;;;;;;;;;;4950351;28;20437;-63
2022/03/09 10:27:56;;;;;;;26.50;11.73;;;;;;;;;;4949955;28;20030;-63
2022/03/09 10:30:24;;;;;;;23.35;10.68;;;;;;;;;;4949944;28;20030;-64
2022/03/09 10:32:53;;;;;;;25.30;12.13;;;;;;;;;;4949762;28;20435;-63
2022/03/09 10:35:40;;;;;;;26.98;10.50;;;;;;;;;;4949983;28;20412;-63
2022/03/09 10:38:08;;;;;;;23.60;10.65;;;;;;;;;;4936639;28;20405;-62
2022/03/09 10:40:40;;;;;;;27.15;12.50;;;;;;;;;;4950004;28;20433;-63
2022/03/09 10:43:14;;;;;;;26.48;11.05;;;;;;;;;;4949299;28;20453;-62
2022/03/09 10:46:03;;;;;;;24.30;10.18;;;;;;;;;;4950153;28;20476;-63
2022/03/09 10:48:50;;;;;;;24.27;10.32;;;;;;;;;;4949602;28;20410;-64
2022/03/09 10:51:28;;;;;;;25.80;10.57;;;;;;;;;;4949835;28;20354;-63
2022/03/09 10:53:54;;;;;;;24.70;10.55;;;;;;;;;;4949570;28;20444;-64
2022/03/09 10:56:19;;;;;;;23.10;11.02;;;;;;;;;;4950966;28;20432;-63
2022/03/09 10:58:45;;;;;;;24.85;10.15;;;;;;;;;;4949609;28;20455;-63
2022/03/09 11:01:18;;;;;;;25.60;12.05;;;;;;;;;;4949543;28;20108;-63
2022/03/09 11:03:44;;;;;;;27.75;11.65;;;;;;;;;;4950857;28;20353;-63
2022/03/09 11:06:10;;;;;;;21.38;10.65;;;;;;;;;;4949239;28;20421;-63
2022/03/09 11:08:37;;;;;;;23.45;9.82;;;;;;;;;;4949756;28;20450;-63
2022/03/09 11:11:04;;;;;;;22.10;10.10;;;;;;;;;;4952416;28;20429;-64
2022/03/09 11:13:34;;;;;;;24.23;9.75;;;;;;;;;;4953791;28;20477;-63
2022/03/09 11:16:00;;;;;;;22.17;9.63;;;;;;;;;;4953720;28;20343;-63
2022/03/09 11:18:28;;;;;;;28.92;11.48;;;;;;;;;;4953953;28;20392;-63
2022/03/09 11:20:58;;;;;;;22.35;8.88;;;;;;;;;;4953972;28;20342;-63
2022/03/09 11:23:25;;;;;;;24.77;9.00;;;;;;;;;;4953058;28;20349;-63
2022/03/09 11:26:11;;;;;;;25.45;10.45;;;;;;;;;;4935703;28;20485;-63
2022/03/09 11:28:41;;;;;;;18.48;9.88;;;;;;;;;;4935510;28;20459;-63
2022/03/09 11:31:12;;;;;;;21.42;9.43;;;;;;;;;;4954369;28;20096;-63
2022/03/09 11:33:50;;;;;;;18.33;8.63;;;;;;;;;;4952974;28;20324;-63
2022/03/09 11:36:21;;;;;;;24.15;9.10;;;;;;;;;;4954436;28;20483;-63
2022/03/09 11:38:48;;;;;;;21.83;8.32;;;;;;;;;;4953013;28;20088;-64
2022/03/09 11:41:22;;;;;;;20.05;7.70;;;;;;;;;;4952722;28;20527;-63
2022/03/09 11:43:47;;;;;;;21.90;8.32;;;;;;;;;;4952653;28;20460;-63
2022/03/09 11:46:12;;;;;;;25.77;8.65;;;;;;;;;;4954291;28;20459;-63
2022/03/09 11:48:57;;;;;;;19.73;7.85;;;;;;;;;;4952640;28;20540;-63
2022/03/09 11:51:27;;;;;;;23.23;7.82;;;;;;;;;;4952964;28;20053;-64
2022/03/09 11:53:57;;;;;;;21.45;9.57;;;;;;;;;;4953691;28;20377;-63
2022/03/09 11:56:37;;;;;;;22.27;9.10;;;;;;;;;;4953153;28;20460;-63
2022/03/09 11:59:14;;;;;;;19.23;7.78;;;;;;;;;;4952828;28;20449;-63
2022/03/09 12:01:55;;;;;;;21.42;9.25;;;;;;;;;;4952481;28;20060;-64
2022/03/09 12:04:42;;;;;;;17.90;7.93;;;;;;;;;;4954882;28;20314;-64
2022/03/09 12:07:08;;;;;;;19.73;8.30;;;;;;;;;;4952733;28;20460;-63
2022/03/09 12:10:09;;;;;;;20.67;8.20;;;;;;;;;;4952710;28;20422;-63
2022/03/09 12:12:36;;;;;;;20.33;8.40;;;;;;;;;;4930274;28;20038;-63
2022/03/09 12:15:05;;;;;;;24.08;8.82;;;;;;;;;;4948073;28;20045;-63
2022/03/09 12:17:38;;;;;;;18.87;8.37;;;;;;;;;;4952023;28;20095;-63
2022/03/09 12:20:24;;;;;;;24.27;8.32;;;;;;;;;;4952598;28;20021;-63
2022/03/09 12:22:56;;;;;;;18.48;8.13;;;;;;;;;;4951571;28;20483;-63
2022/03/09 12:25:41;;;;;;;18.80;8.63;;;;;;;;;;4952152;28;20084;-63
2022/03/09 12:28:25;;;;;;;16.90;6.78;;;;;;;;;;4952117;28;20030;-63
2022/03/09 12:30:58;;;;;;;21.08;7.45;;;;;;;;;;4951868;28;20330;-63
2022/03/09 12:33:24;;;;;;;16.73;7.00;;;;;;;;;;4952163;28;20380;-63
2022/03/09 12:35:50;;;;;;;19.20;7.10;;;;;;;;;;4951861;28;20365;-63
2022/03/09 12:38:16;;;;;;;17.08;7.57;;;;;;;;;;4952853;28;20342;-63
2022/03/09 12:40:41;;;;;;;20.65;8.05;;;;;;;;;;4951706;28;20373;-63
2022/03/09 12:43:07;;;;;;;19.05;7.70;;;;;;;;;;4952485;28;20381;-64
2022/03/09 12:45:53;;;;;;;14.68;6.38;;;;;;;;;;4951723;28;20337;-63
2022/03/09 12:48:19;;;;;;;18.63;7.03;;;;;;;;;;4952251;28;20310;-63
2022/03/09 12:50:44;;;;;;;15.43;7.05;;;;;;;;;;4952388;28;20364;-63
2022/03/09 12:53:10;;;;;;;14.65;6.95;;;;;;;;;;4951592;28;20307;-63
2022/03/09 12:55:36;;;;;;;19.58;7.35;;;;;;;;;;4951692;28;20459;-63
2022/03/09 12:58:02;;;;;;;15.48;6.28;;;;;;;;;;4953325;28;20437;-63
2022/03/09 13:00:30;;;;;;;16.88;6.50;;;;;;;;;;4951601;28;20484;-63
2022/03/09 13:03:00;;;;;;;16.15;6.60;;;;;;;;;;4951198;28;20425;-63
2022/03/09 13:05:27;;;;;;;16.90;6.85;;;;;;;;;;4951960;28;20338;-63
2022/03/09 13:07:59;;;;;;;13.25;5.90;;;;;;;;;;4951339;28;20057;-63
2022/03/09 13:10:26;;;;;;;18.35;7.68;;;;;;;;;;4951209;28;20030;-64
2022/03/09 13:12:56;;;;;;;15.68;6.47;;;;;;;;;;4951443;28;20437;-63
2022/03/09 13:15:37;;;;;;;18.23;6.55;;;;;;;;;;4952181;28;20325;-63
2022/03/09 13:18:02;;;;;;;17.38;6.25;;;;;;;;;;4951258;28;20100;-64
2022/03/09 13:20:28;;;;;;;13.43;6.03;;;;;;;;;;4965927;28;20437;-63
2022/03/09 13:22:53;;;;;;;15.85;6.55;;;;;;;;;;4952780;28;20373;-64
2022/03/09 13:25:18;;;;;;;15.93;6.40;;;;;;;;;;4951037;28;20164;-63
2022/03/09 13:27:44;;;;;;;15.30;6.90;;;;;;;;;;4938917;28;20461;-63
2022/03/09 13:30:22;;;;;;;15.23;6.00;;;;;;;;;;4950975;28;20492;-63
2022/03/09 13:32:48;;;;;;;13.73;6.13;;;;;;;;;;4950528;28;20536;-63
2022/03/09 13:35:24;;;;;;;14.77;7.20;;;;;;;;;;4951058;28;20422;-63
2022/03/09 13:38:00;;;;;;;14.88;6.75;;;;;;;;;;4951066;28;20429;-63
2022/03/09 13:40:25;;;;;;;14.85;7.88;;;;;;;;;;4950645;28;20037;-63
2022/03/09 13:42:52;;;;;;;15.25;6.97;;;;;;;;;;4933650;28;20496;-63
2022/03/09 13:45:25;;;;;;;13.25;5.55;;;;;;;;;;4951013;28;20511;-63
2022/03/09 13:48:01;;;;;;;14.95;6.43;;;;;;;;;;4950268;28;20399;-63
2022/03/09 13:50:31;;;;;;;11.70;5.22;;;;;;;;;;4950496;28;20413;-63
2022/03/09 13:53:06;;;;;;;19.25;6.28;;;;;;;;;;4950272;28;20453;-63
2022/03/09 13:55:50;;;;;;;14.30;5.65;;;;;;;;;;4950333;28;20476;-64
2022/03/09 13:58:23;;;;;;;17.55;5.78;;;;;;;;;;4951579;28;20448;-63
2022/03/09 14:00:49;;;;;;;11.93;5.43;;;;;;;;;;4950507;28;20405;-63
2022/03/09 14:03:19;;;;;;;8.60;4.35;;;;;;;;;;4950470;28;20316;-63
2022/03/09 14:05:48;;;;;;;12.75;5.15;;;;;;;;;;4951082;28;20329;-64
2022/03/09 14:08:23;;;;;;;12.65;4.95;;;;;;;;;;4933086;28;20377;-63
2022/03/09 14:10:51;;;;;;;11.82;5.18;;;;;;;;;;4949725;28;20468;-63
2022/03/09 14:13:19;;;;;;;11.15;5.43;;;;;;;;;;4933063;28;20512;-62
2022/03/09 14:15:47;;;;;;;16.50;6.75;;;;;;;;;;4949827;28;20512;-63
2022/03/09 14:18:13;;;;;;;9.57;4.90;;;;;;;;;;4950174;28;20030;-63
2022/03/09 14:20:39;;;;;;;12.85;5.10;;;;;;;;;;4950580;28;20054;-63